createdAt,value
2018-05-13T00:00:56.038Z,27.70
2018-05-13T00:03:24.368Z,29.07
2018-05-13T00:05:52.721Z,29.90
2018-05-13T00:08:21.057Z,28.27
2018-05-13T00:10:49.415Z,29.50
2018-05-13T00:13:17.740Z,30.10
2018-05-13T00:15:46.091Z,31.97
2018-05-13T00:18:14.436Z,29.50
2018-05-13T00:20:42.788Z,30.27
2018-05-13T00:23:11.121Z,29.40
2018-05-13T00:25:39.472Z,29.17
2018-05-13T00:28:07.809Z,30.00
2018-05-13T00:30:36.172Z,32.67
2018-05-13T00:33:04.505Z,29.47
2018-05-13T00:35:32.934Z,30.13
2018-05-13T00:38:01.194Z,28.53
2018-05-13T00:40:29.549Z,29.20
2018-05-13T00:42:57.881Z,29.93
2018-05-13T00:45:26.242Z,29.23
2018-05-13T00:47:54.572Z,30.83
2018-05-13T00:50:22.934Z,29.70
2018-05-13T00:52:51.265Z,29.10
2018-05-13T00:55:19.621Z,29.10
2018-05-13T00:57:47.948Z,29.43
2018-05-13T01:00:16.309Z,28.40
2018-05-13T01:02:44.673Z,29.30
2018-05-13T01:05:12.972Z,29.30
2018-05-13T01:07:41.334Z,30.30
2018-05-13T01:10:09.674Z,26.50
2018-05-13T01:12:38.020Z,28.10
2018-05-13T01:15:06.359Z,29.20
2018-05-13T01:17:34.708Z,29.53
2018-05-13T01:20:03.044Z,30.20
2018-05-13T01:22:31.398Z,28.97
2018-05-13T01:24:59.732Z,30.10
2018-05-13T01:27:28.085Z,29.07
2018-05-13T01:29:56.415Z,30.47
2018-05-13T01:32:24.775Z,29.90
2018-05-13T01:34:53.106Z,29.70
2018-05-13T01:37:21.462Z,31.03
2018-05-13T01:39:49.792Z,30.60
2018-05-13T01:42:18.144Z,28.23
2018-05-13T01:44:46.485Z,30.33
2018-05-13T01:47:14.847Z,29.77
2018-05-13T01:49:43.184Z,28.80
2018-05-13T01:52:11.536Z,27.43
2018-05-13T01:54:39.868Z,31.13
2018-05-13T01:57:08.221Z,29.37
2018-05-13T01:59:36.561Z,29.87
2018-05-13T02:02:04.917Z,30.83
2018-05-13T02:04:33.247Z,28.83
2018-05-13T02:07:01.601Z,30.70
2018-05-13T02:09:29.936Z,30.33
2018-05-13T02:11:58.284Z,31.00
2018-05-13T02:14:26.615Z,30.07
2018-05-13T02:16:54.985Z,30.67
2018-05-13T02:19:23.316Z,30.80
2018-05-13T02:21:51.672Z,30.80
2018-05-13T02:24:20.009Z,31.80
2018-05-13T02:26:48.376Z,32.40
2018-05-13T02:29:16.697Z,30.97
2018-05-13T02:31:45.046Z,32.87
2018-05-13T02:34:13.385Z,29.67
2018-05-13T02:36:41.741Z,30.67
2018-05-13T02:39:10.073Z,31.97
2018-05-13T02:41:38.425Z,30.50
2018-05-13T02:44:06.753Z,30.53
2018-05-13T02:46:35.105Z,31.77
2018-05-13T02:49:03.437Z,30.60
2018-05-13T02:51:31.793Z,31.07
2018-05-13T02:54:00.130Z,31.30
2018-05-13T02:56:28.480Z,31.80
2018-05-13T02:58:56.809Z,31.53
2018-05-13T03:01:25.171Z,31.03
2018-05-13T03:03:53.529Z,33.50
2018-05-13T03:06:21.856Z,31.87
2018-05-13T03:08:50.545Z,31.73
2018-05-13T03:11:18.878Z,30.80
2018-05-13T03:13:47.227Z,31.40
2018-05-13T03:16:15.562Z,31.67
2018-05-13T03:18:43.916Z,30.03
2018-05-13T03:21:12.249Z,29.53
2018-05-13T03:23:40.634Z,29.83
2018-05-13T03:26:08.960Z,29.90
2018-05-13T03:28:37.321Z,30.50
2018-05-13T03:31:05.662Z,29.60
2018-05-13T03:33:34.041Z,28.03
2018-05-13T03:36:02.368Z,30.23
2018-05-13T03:38:30.725Z,29.60
2018-05-13T03:40:59.056Z,29.87
2018-05-13T03:43:27.409Z,29.80
2018-05-13T03:45:55.749Z,29.00
2018-05-13T03:48:24.109Z,29.77
2018-05-13T03:50:52.440Z,28.90
2018-05-13T03:53:20.801Z,30.30
2018-05-13T03:55:49.134Z,31.43
2018-05-13T03:58:17.484Z,31.20
2018-05-13T04:00:45.817Z,31.70
2018-05-13T04:03:14.168Z,31.47
2018-05-13T04:05:42.504Z,32.57
2018-05-13T04:11:33.533Z,30.20
2018-05-13T04:14:13.520Z,30.77
2018-05-13T04:16:41.854Z,31.47
2018-05-13T04:19:10.200Z,31.67
2018-05-13T04:21:38.537Z,33.00
2018-05-13T04:24:06.889Z,32.07
2018-05-13T04:26:35.229Z,34.63
2018-05-13T04:29:03.584Z,29.77
2018-05-13T04:31:31.928Z,29.93
2018-05-13T04:34:00.281Z,30.70
2018-05-13T04:36:28.613Z,30.40
2018-05-13T04:38:56.965Z,32.93
2018-05-13T04:41:25.292Z,31.30
2018-05-13T04:43:53.665Z,31.97
2018-05-13T04:46:22.071Z,30.60
2018-05-13T04:48:50.360Z,31.77
2018-05-13T04:51:18.699Z,30.10
2018-05-13T04:53:47.060Z,31.40
2018-05-13T04:56:15.397Z,31.07
2018-05-13T04:58:43.745Z,30.13
2018-05-13T05:01:12.079Z,32.83
2018-05-13T05:03:40.428Z,32.40
2018-05-13T05:06:08.765Z,31.50
2018-05-13T05:08:37.122Z,28.80
2018-05-13T05:11:05.451Z,32.50
2018-05-13T05:13:33.809Z,31.37
2018-05-13T05:16:02.140Z,30.93
2018-05-13T05:18:30.496Z,29.47
2018-05-13T05:20:58.834Z,32.00
2018-05-13T05:23:27.193Z,30.80
2018-05-13T05:25:55.524Z,29.70
2018-05-13T05:28:23.876Z,31.43
2018-05-13T05:30:52.217Z,31.57
2018-05-13T05:33:20.586Z,31.90
2018-05-13T05:35:48.996Z,30.70
2018-05-13T05:38:17.273Z,31.43
2018-05-13T05:40:45.620Z,32.10
2018-05-13T05:43:13.973Z,33.07
2018-05-13T05:45:42.309Z,32.53
2018-05-13T05:48:10.661Z,30.80
2018-05-13T05:50:38.997Z,32.30
2018-05-13T05:53:07.357Z,31.53
2018-05-13T05:55:35.692Z,32.77
2018-05-13T05:58:04.041Z,31.87
2018-05-13T06:00:32.388Z,32.87
2018-05-13T06:03:00.729Z,30.03
2018-05-13T06:05:29.088Z,32.20
2018-05-13T06:07:57.419Z,28.87
2018-05-13T06:10:25.774Z,33.00
2018-05-13T06:12:54.109Z,30.10
2018-05-13T06:15:22.465Z,31.97
2018-05-13T06:17:50.800Z,31.10
2018-05-13T06:20:19.153Z,30.80
2018-05-13T06:22:47.489Z,30.80
2018-05-13T06:25:15.925Z,29.80
2018-05-13T06:27:44.166Z,30.20
2018-05-13T06:30:12.523Z,34.00
2018-05-13T06:32:40.857Z,30.67
2018-05-13T06:35:09.214Z,32.23
2018-05-13T06:37:37.555Z,29.67
2018-05-13T06:40:05.905Z,31.17
2018-05-13T06:42:34.243Z,30.90
2018-05-13T06:45:02.593Z,29.70
2018-05-13T06:47:30.924Z,30.00
2018-05-13T06:49:59.277Z,31.57
2018-05-13T06:52:27.617Z,30.70
2018-05-13T06:54:55.983Z,32.27
2018-05-13T06:57:24.393Z,30.23
2018-05-13T06:59:53.281Z,31.90
2018-05-13T07:02:21.621Z,31.00
2018-05-13T07:04:49.981Z,31.70
2018-05-13T07:07:18.317Z,32.17
2018-05-13T07:09:46.676Z,31.23
2018-05-13T07:12:15.009Z,33.63
2018-05-13T07:14:43.365Z,30.80
2018-05-13T07:17:11.702Z,31.57
2018-05-13T07:19:40.088Z,31.73
2018-05-13T07:22:08.428Z,32.17
2018-05-13T07:24:36.786Z,34.47
2018-05-13T07:27:05.124Z,33.28
2018-05-13T07:29:33.484Z,32.53
2018-05-13T07:32:01.816Z,34.50
2018-05-13T07:34:30.191Z,33.78
2018-05-13T07:36:58.528Z,32.30
2018-05-13T07:39:27.624Z,35.10
2018-05-13T07:41:55.958Z,34.03
2018-05-13T07:44:24.324Z,33.70
2018-05-13T07:46:52.666Z,33.28
2018-05-13T07:49:21.031Z,32.57
2018-05-13T07:51:49.368Z,32.05
2018-05-13T07:54:17.724Z,32.77
2018-05-13T07:56:46.060Z,33.23
2018-05-13T07:59:14.410Z,32.77
2018-05-13T08:01:42.760Z,31.10
2018-05-13T08:04:11.101Z,31.73
2018-05-13T08:06:39.672Z,33.57
2018-05-13T08:09:08.151Z,33.30
2018-05-13T08:11:36.831Z,34.20
2018-05-13T08:14:05.280Z,33.00
2018-05-13T08:16:33.990Z,32.50
2018-05-13T08:19:03.392Z,31.97
2018-05-13T08:21:31.748Z,32.90
2018-05-13T08:24:00.076Z,35.15
2018-05-13T08:26:28.441Z,32.07
2018-05-13T08:28:56.773Z,32.83
2018-05-13T08:31:25.132Z,31.55
2018-05-13T08:33:53.472Z,31.93
2018-05-13T08:36:21.841Z,30.70
2018-05-13T08:38:50.513Z,30.62
2018-05-13T08:41:18.869Z,30.07
2018-05-13T08:43:47.208Z,31.57
2018-05-13T08:46:15.578Z,29.33
2018-05-13T08:48:43.918Z,30.62
2018-05-13T08:51:12.275Z,30.90
2018-05-13T08:53:40.608Z,30.62
2018-05-13T08:56:08.993Z,32.30
2018-05-13T08:58:37.369Z,31.43
2018-05-13T09:01:05.731Z,31.33
2018-05-13T09:03:34.069Z,30.80
2018-05-13T09:06:02.433Z,31.15
2018-05-13T09:08:30.829Z,30.43
2018-05-13T09:10:59.133Z,31.08
2018-05-13T09:13:27.590Z,28.53
2018-05-13T09:15:55.949Z,31.70
2018-05-13T09:18:24.972Z,29.83
2018-05-13T09:20:53.344Z,31.20
2018-05-13T09:23:21.672Z,31.43
2018-05-13T09:25:52.957Z,29.50
2018-05-13T09:28:21.307Z,29.08
2018-05-13T09:30:49.670Z,29.30
2018-05-13T09:33:18.017Z,28.62
2018-05-13T09:35:46.385Z,29.93
2018-05-13T09:38:14.726Z,27.97
2018-05-13T09:40:43.085Z,26.80
2018-05-13T09:43:11.425Z,27.83
2018-05-13T09:45:39.954Z,26.13
2018-05-13T09:48:08.285Z,25.62
2018-05-13T09:50:36.645Z,25.17
2018-05-13T09:53:04.989Z,26.65
2018-05-13T09:55:33.371Z,25.35
2018-05-13T09:58:01.722Z,26.03
2018-05-13T10:00:30.091Z,26.83
2018-05-13T10:02:58.439Z,23.53
2018-05-13T10:05:26.783Z,22.50
2018-05-13T10:07:55.142Z,24.12
2018-05-13T10:10:23.485Z,26.12
2018-05-13T10:12:51.845Z,23.42
2018-05-13T10:15:20.188Z,21.47
2018-05-13T10:17:48.550Z,20.13
2018-05-13T10:20:16.885Z,22.03
2018-05-13T10:22:45.244Z,19.77
2018-05-13T10:25:13.599Z,19.37
2018-05-13T10:27:41.950Z,18.95
2018-05-13T10:30:10.285Z,19.15
2018-05-13T10:32:38.641Z,20.47
2018-05-13T10:35:06.981Z,20.70
2018-05-13T10:37:36.702Z,19.90
2018-05-13T10:40:05.331Z,20.80
2018-05-13T10:42:33.825Z,21.87
2018-05-13T10:45:02.132Z,21.80
2018-05-13T10:47:30.493Z,20.12
2018-05-13T10:49:58.828Z,21.37
2018-05-13T10:52:27.188Z,21.42
2018-05-13T10:54:55.522Z,21.17
2018-05-13T10:57:23.890Z,20.27
2018-05-13T10:59:52.226Z,21.97
2018-05-13T11:02:20.589Z,19.43
2018-05-13T11:04:49.028Z,20.23
2018-05-13T11:07:17.301Z,18.97
2018-05-13T11:09:45.727Z,17.85
2018-05-13T11:12:14.069Z,18.67
2018-05-13T11:14:42.406Z,18.23
2018-05-13T11:17:10.994Z,15.80
2018-05-13T11:19:39.338Z,17.17
2018-05-13T11:22:07.693Z,17.33
2018-05-13T11:24:36.033Z,17.50
2018-05-13T11:27:04.397Z,15.38
2018-05-13T11:29:32.734Z,15.23
2018-05-13T11:32:01.213Z,15.47
2018-05-13T11:34:29.553Z,14.60
2018-05-13T11:36:58.625Z,15.80
2018-05-13T11:39:26.973Z,15.30
2018-05-13T11:41:55.970Z,14.60
2018-05-13T11:44:24.310Z,14.80
2018-05-13T11:46:52.665Z,14.90
2018-05-13T11:49:21.096Z,15.10
2018-05-13T11:51:49.453Z,13.63
2018-05-13T11:54:17.802Z,14.45
2018-05-13T11:56:46.163Z,13.03
2018-05-13T11:59:14.500Z,13.37
2018-05-13T12:01:42.853Z,12.13
2018-05-13T12:04:11.198Z,12.60
2018-05-13T12:06:39.566Z,12.48
2018-05-13T12:09:07.900Z,12.90
2018-05-13T12:11:36.245Z,14.10
2018-05-13T12:14:04.605Z,14.90
2018-05-13T12:16:33.052Z,11.73
2018-05-13T12:19:01.474Z,12.30
2018-05-13T12:21:29.749Z,11.83
2018-05-13T12:23:58.117Z,13.00
2018-05-13T12:26:26.464Z,13.50
2018-05-13T12:28:54.857Z,12.70
2018-05-13T12:31:23.186Z,11.95
2018-05-13T12:33:51.553Z,13.93
2018-05-13T12:36:19.893Z,12.90
2018-05-13T12:38:48.253Z,11.60
2018-05-13T12:41:16.584Z,10.70
2018-05-13T12:43:44.948Z,10.85
2018-05-13T12:46:13.289Z,10.93
2018-05-13T12:48:41.648Z,11.17
2018-05-13T12:51:09.994Z,10.65
2018-05-13T12:53:38.352Z,10.30
2018-05-13T12:56:07.849Z,9.77
2018-05-13T12:58:36.207Z,10.63
2018-05-13T13:01:04.554Z,12.27
2018-05-13T13:03:32.902Z,12.43
2018-05-13T13:06:01.261Z,10.80
2018-05-13T13:08:29.654Z,13.25
2018-05-13T13:10:57.952Z,11.77
2018-05-13T13:13:26.312Z,11.77
2018-05-13T13:15:54.648Z,11.10
2018-05-13T13:18:23.949Z,11.27
2018-05-13T13:20:52.293Z,10.67
2018-05-13T13:23:20.652Z,11.50
2018-05-13T13:25:49.010Z,11.82
2018-05-13T13:28:17.360Z,10.90
2018-05-13T13:30:45.780Z,9.50
2018-05-13T13:33:14.071Z,9.17
2018-05-13T13:35:42.409Z,8.40
2018-05-13T13:38:10.773Z,9.10
2018-05-13T13:40:39.118Z,10.10
2018-05-13T13:43:07.487Z,8.73
2018-05-13T13:45:35.849Z,8.50
2018-05-13T13:48:04.201Z,9.73
2018-05-13T13:50:32.540Z,8.80
2018-05-13T13:53:00.916Z,9.67
2018-05-13T13:55:29.969Z,9.68
2018-05-13T13:57:58.379Z,9.00
2018-05-13T14:00:26.748Z,9.30
2018-05-13T14:02:55.110Z,8.43
2018-05-13T14:05:23.485Z,9.25
2018-05-13T14:07:51.846Z,9.53
2018-05-13T14:10:20.179Z,9.15
2018-05-13T14:12:48.505Z,9.40
2018-05-13T14:15:16.928Z,9.20
2018-05-13T14:17:45.276Z,9.10
2018-05-13T14:20:13.948Z,8.60
2018-05-13T14:22:43.049Z,8.80
2018-05-13T14:25:12.601Z,8.73
2018-05-13T14:27:41.488Z,8.57
2018-05-13T14:30:10.836Z,8.27
2018-05-13T14:32:39.540Z,7.90
2018-05-13T14:35:08.146Z,7.90
2018-05-13T14:37:36.827Z,7.67
2018-05-13T14:40:05.389Z,7.17
2018-05-13T14:42:34.620Z,7.80
2018-05-13T14:45:03.220Z,7.57
2018-05-13T14:47:31.772Z,6.28
2018-05-13T14:50:00.347Z,6.53
2018-05-13T14:52:28.841Z,5.75
2018-05-13T14:54:57.359Z,5.70
2018-05-13T14:57:25.848Z,5.93
2018-05-13T14:59:54.532Z,5.47
2018-05-13T15:02:23.019Z,5.55
2018-05-13T15:04:52.469Z,5.10
2018-05-13T15:07:29.903Z,5.57
2018-05-13T15:09:58.633Z,6.17
2018-05-13T15:12:27.308Z,5.00
2018-05-13T15:14:55.736Z,5.47
2018-05-13T15:17:24.270Z,5.33
2018-05-13T15:19:52.975Z,4.70
2018-05-13T15:22:36.202Z,4.60
2018-05-13T15:25:04.765Z,4.73
2018-05-13T15:27:33.291Z,5.05
2018-05-13T15:30:01.929Z,5.32
2018-05-13T15:32:30.421Z,5.30
2018-05-13T15:34:59.193Z,4.17
2018-05-13T15:37:27.709Z,4.50
2018-05-13T15:39:56.178Z,4.57
2018-05-13T15:42:24.700Z,4.90
2018-05-13T15:44:53.738Z,4.70
2018-05-13T15:47:22.137Z,4.33
2018-05-13T15:49:50.487Z,4.30
2018-05-13T15:52:18.812Z,5.18
2018-05-13T15:54:47.839Z,7.30
2018-05-13T15:57:16.169Z,5.33
2018-05-13T15:59:44.521Z,5.03
2018-05-13T16:02:12.853Z,6.03
2018-05-13T16:04:41.200Z,5.87
2018-05-13T16:07:09.533Z,6.45
2018-05-13T16:09:37.889Z,5.82
2018-05-13T16:12:06.228Z,5.70
2018-05-13T16:14:35.561Z,5.90
2018-05-13T16:17:03.891Z,5.83
2018-05-13T16:19:32.232Z,5.30
2018-05-13T16:22:00.556Z,5.70
2018-05-13T16:24:28.908Z,6.80
2018-05-13T16:26:57.257Z,6.53
2018-05-13T16:29:25.671Z,7.67
2018-05-13T16:31:53.988Z,9.70
2018-05-13T16:34:23.096Z,9.50
2018-05-13T16:36:51.432Z,9.93
2018-05-13T16:39:19.793Z,10.17
2018-05-13T16:41:48.121Z,9.93
2018-05-13T16:44:16.460Z,10.37
2018-05-13T16:46:44.821Z,11.05
2018-05-13T16:49:13.161Z,11.23
2018-05-13T16:51:41.521Z,9.17
2018-05-13T16:54:10.616Z,9.80
2018-05-13T16:56:38.972Z,11.30
2018-05-13T16:59:07.315Z,10.27
2018-05-13T17:01:35.724Z,12.57
2018-05-13T17:04:04.015Z,13.70
2018-05-13T17:06:32.372Z,13.13
2018-05-13T17:09:00.717Z,13.02
2018-05-13T17:11:29.076Z,12.23
2018-05-13T17:13:57.421Z,12.90
2018-05-13T17:16:25.781Z,12.03
2018-05-13T17:18:54.121Z,11.70
2018-05-13T17:21:22.478Z,11.88
2018-05-13T17:23:50.816Z,12.35
2018-05-13T17:26:19.183Z,11.85
2018-05-13T17:28:47.518Z,11.33
2018-05-13T17:31:15.907Z,11.83
2018-05-13T17:33:44.227Z,12.50
2018-05-13T17:36:12.585Z,12.48
2018-05-13T17:38:40.929Z,11.95
2018-05-13T17:41:09.321Z,13.30
2018-05-13T17:43:37.632Z,11.87
2018-05-13T17:46:05.993Z,9.13
2018-05-13T17:48:34.322Z,7.93
2018-05-13T17:51:02.673Z,7.32
2018-05-13T17:53:31.030Z,6.30
2018-05-13T17:55:59.355Z,6.43
2018-05-13T17:58:27.672Z,5.77
2018-05-13T18:00:56.061Z,6.10
2018-05-13T18:03:24.368Z,5.53
2018-05-13T18:05:52.718Z,5.67
2018-05-13T18:08:21.056Z,6.00
2018-05-13T18:10:49.397Z,5.10
2018-05-13T18:13:17.781Z,5.74
2018-05-13T18:15:46.124Z,5.70
2018-05-13T18:18:14.449Z,5.97
2018-05-13T18:20:42.806Z,5.90
2018-05-13T18:23:11.128Z,5.80
2018-05-13T18:25:39.481Z,6.27
2018-05-13T18:28:07.898Z,5.60
2018-05-13T18:30:36.189Z,5.55
2018-05-13T18:33:04.521Z,6.33
2018-05-13T18:35:32.864Z,5.50
2018-05-13T18:38:01.193Z,8.23
2018-05-13T18:40:30.336Z,8.67
2018-05-13T18:42:58.665Z,8.27
2018-05-13T18:45:27.049Z,8.30
2018-05-13T18:47:55.393Z,9.50
2018-05-13T18:50:23.880Z,8.67
2018-05-13T18:52:52.102Z,11.27
2018-05-13T18:55:20.436Z,11.07
2018-05-13T18:57:48.800Z,10.50
2018-05-13T19:00:17.438Z,10.98
2018-05-13T19:02:45.797Z,11.73
2018-05-13T19:05:14.136Z,11.30
2018-05-13T19:07:42.493Z,11.63
2018-05-13T19:10:10.833Z,10.77
2018-05-13T19:12:39.201Z,11.00
2018-05-13T19:15:07.528Z,11.68
2018-05-13T19:17:35.897Z,12.27
2018-05-13T19:20:04.966Z,14.07
2018-05-13T19:22:33.354Z,12.40
2018-05-13T19:25:01.677Z,12.13
2018-05-13T19:27:30.037Z,14.10
2018-05-13T19:29:58.379Z,12.67
2018-05-13T19:32:26.741Z,14.27
2018-05-13T19:34:55.083Z,14.83
2018-05-13T19:37:23.437Z,14.80
2018-05-13T19:39:52.698Z,14.57
2018-05-13T19:42:21.059Z,16.00
2018-05-13T19:44:49.392Z,13.00
2018-05-13T19:47:17.753Z,13.53
2018-05-13T19:49:46.107Z,12.60
2018-05-13T19:52:14.449Z,12.50
2018-05-13T19:54:42.788Z,12.83
2018-05-13T19:57:11.143Z,13.53
2018-05-13T19:59:40.225Z,11.87
2018-05-13T20:02:08.585Z,12.60
2018-05-13T20:04:36.921Z,12.37
2018-05-13T20:07:05.286Z,14.45
2018-05-13T20:09:33.665Z,13.37
2018-05-13T20:12:01.979Z,13.68
2018-05-13T20:14:30.321Z,13.90
2018-05-13T20:16:58.681Z,13.47
2018-05-13T20:19:27.017Z,13.20
2018-05-13T20:21:55.374Z,15.27
2018-05-13T20:24:23.711Z,14.53
2018-05-13T20:26:52.105Z,14.07
2018-05-13T20:29:20.444Z,14.10
2018-05-13T20:31:48.801Z,14.67
2018-05-13T20:34:17.145Z,14.57
2018-05-13T20:36:45.504Z,13.10
2018-05-13T20:39:14.568Z,13.90
2018-05-13T20:41:42.924Z,15.27
2018-05-13T20:44:11.341Z,16.27
2018-05-13T20:46:39.625Z,15.47
2018-05-13T20:49:07.961Z,15.00
2018-05-13T20:51:36.300Z,14.82
2018-05-13T20:54:04.670Z,14.27
2018-05-13T20:56:33.017Z,14.53
2018-05-13T20:59:02.293Z,16.08
2018-05-13T21:01:30.581Z,16.10
2018-05-13T21:03:58.941Z,17.80
2018-05-13T21:06:27.276Z,15.73
2018-05-13T21:08:55.642Z,17.23
2018-05-13T21:11:23.989Z,17.00
2018-05-13T21:13:52.344Z,15.93
2018-05-13T21:16:20.682Z,16.53
2018-05-13T21:18:49.838Z,14.83
2018-05-13T21:21:18.173Z,16.50
2018-05-13T21:23:46.537Z,17.10
2018-05-13T21:26:14.880Z,17.90
2018-05-13T21:28:43.249Z,17.00
2018-05-13T21:31:11.591Z,18.25
2018-05-13T21:33:39.957Z,17.53
2018-05-13T21:36:08.297Z,17.17
2018-05-13T21:38:36.672Z,17.80
2018-05-13T21:41:05.009Z,18.40
2018-05-13T21:43:33.370Z,18.50
2018-05-13T21:46:01.697Z,18.90
2018-05-13T21:48:30.055Z,19.27
2018-05-13T21:50:58.384Z,19.60
2018-05-13T21:53:26.737Z,18.97
2018-05-13T21:55:55.073Z,20.70
2018-05-13T21:58:23.424Z,20.60
2018-05-13T22:00:51.757Z,19.13
2018-05-13T22:03:20.116Z,20.10
2018-05-13T22:05:48.449Z,22.50
2018-05-13T22:08:16.802Z,24.10
2018-05-13T22:10:45.141Z,20.57
2018-05-13T22:13:13.497Z,21.37
2018-05-13T22:15:41.825Z,23.90
2018-05-13T22:18:10.181Z,24.07
2018-05-13T22:20:38.508Z,22.70
2018-05-13T22:23:06.864Z,23.07
2018-05-13T22:25:35.243Z,23.53
2018-05-13T22:28:03.561Z,24.50
2018-05-13T22:30:31.884Z,23.20
2018-05-13T22:33:00.245Z,22.70
2018-05-13T22:35:28.577Z,24.13
2018-05-13T22:37:56.933Z,24.43
2018-05-13T22:40:25.268Z,23.30
2018-05-13T22:42:53.616Z,24.00
2018-05-13T22:45:21.953Z,22.53
2018-05-13T22:47:50.306Z,23.80
2018-05-13T22:50:18.637Z,25.17
2018-05-13T22:52:46.981Z,25.20
2018-05-13T22:55:15.332Z,24.50
2018-05-13T22:57:43.673Z,23.67
2018-05-13T23:00:12.030Z,25.17
2018-05-13T23:02:40.365Z,23.40
2018-05-13T23:05:08.716Z,23.00
2018-05-13T23:07:37.054Z,22.60
2018-05-13T23:10:05.409Z,25.00
2018-05-13T23:12:33.746Z,24.10
2018-05-13T23:15:02.096Z,24.23
2018-05-13T23:17:30.432Z,25.13
2018-05-13T23:19:58.780Z,24.57
2018-05-13T23:22:34.813Z,23.30
2018-05-13T23:25:03.161Z,24.00
2018-05-13T23:27:31.488Z,24.93
2018-05-13T23:29:59.841Z,24.97
2018-05-13T23:32:28.180Z,23.50
2018-05-13T23:34:56.537Z,24.27
2018-05-13T23:37:24.869Z,24.60
2018-05-13T23:39:53.216Z,23.73
2018-05-13T23:42:21.553Z,25.17
2018-05-13T23:44:49.904Z,22.40
2018-05-13T23:47:18.233Z,21.97
2018-05-13T23:49:46.592Z,21.10
2018-05-13T23:52:14.926Z,22.97
2018-05-13T23:54:43.277Z,22.10
2018-05-13T23:57:11.624Z,19.87
2018-05-13T23:59:39.982Z,20.13
